This is the latest recevied weather packets stored in our database for station/object KE9DBJ-13. If no packets are shown the sender has not sent any weather packets the latest 10 day(s).
| Time | Temp. | Humidity | Pressure | Rain* | Wind** | Luminosity | Snow |
|---|---|---|---|---|---|---|---|
| 1777336203 | 17.22° C | 97% | 1012.7 hPa | 3.56 mm | - | - | - |
| 1777335602 | 17.22° C | 97% | 1012.8 hPa | 4.06 mm | - | - | - |
| 1777335002 | 17.22° C | 97% | 1013.1 hPa | 7.62 mm | - | - | - |
| 1777334402 | 17.22° C | 97% | 1012.9 hPa | 9.4 mm | - | - | - |
| 1777333802 | 17.22° C | 97% | 1013.1 hPa | 7.37 mm | - | - | - |
| 1777333202 | 17.22° C | 97% | 1012.5 hPa | 6.35 mm | - | - | - |
| 1777332602 | 17.22° C | 96% | 1011.9 hPa | 3.05 mm | - | - | - |
| 1777332002 | 17.22° C | 97% | 1011.8 hPa | 2.54 mm | - | - | - |
| 1777331402 | 17.22° C | 96% | 1011.7 hPa | 5.08 mm | - | - | - |
| 1777330802 | 17.22° C | 95% | 1012.7 hPa | 5.84 mm | - | - | - |
| 1777330202 | 17.78° C | 93% | 1013.5 hPa | 9.14 mm | - | - | - |
| 1777329603 | 17.78° C | 91% | 1012.5 hPa | 15.75 mm | - | - | - |
| 1777329003 | 18.33° C | 85% | 1012.2 hPa | 5.59 mm | - | - | - |
| 1777328403 | 19.44° C | 80% | 1012.1 hPa | 1.52 mm | - | - | - |
| 1777327803 | 20.56° C | 71% | 1011.5 hPa | 0 mm | - | - | - |
| 1777327203 | 18.89° C | 80% | 1011.1 hPa | 0 mm | - | - | - |
| 1777326603 | 18.89° C | 82% | 1009.4 hPa | 0 mm | - | - | - |
| 1777326003 | 18.89° C | 80% | 1009.4 hPa | 0 mm | - | - | - |
| 1777325403 | 18.89° C | 77% | 1008.9 hPa | 0 mm | - | - | - |
| 1777324803 | 18.89° C | 80% | 1008.9 hPa | 0 mm | - | - | - |
| 1777324202 | 19.44° C | 78% | 1009 hPa | 0 mm | - | - | - |
| 1777323602 | 19.44° C | 78% | 1008.7 hPa | 0.51 mm | - | - | - |
| 1777323002 | 19.44° C | 81% | 1008.8 hPa | 1.02 mm | - | - | - |
| 1777322402 | 20° C | 80% | 1010.2 hPa | 0 mm | - | - | - |
| 1777321802 | 20.56° C | 72% | 1010.6 hPa | 0 mm | - | - | - |
* Rain latest hour (hover to see other rain measurements)
** Current wind speed in m/s (hover to see current wind gust speed)